sensor_id;sensor_type;location;lat;lon;timestamp;P1;P2;P0
46591;PMS6003;32314;48.748;9.656;2023-07-13T00:01:43;3.00;3.00;2.00
46591;PMS6003;32314;48.748;9.656;2023-07-13T00:04:31;2.25;2.25;2.00
46591;PMS6003;32314;48.748;9.656;2023-07-13T00:07:17;1.75;1.75;1.75
46591;PMS6003;32314;48.748;9.656;2023-07-13T00:10:05;3.00;3.00;3.00
46591;PMS6003;32314;48.748;9.656;2023-07-13T00:12:52;4.00;4.00;4.00
46591;PMS6003;32314;48.748;9.656;2023-07-13T00:15:40;6.25;3.75;3.00
46591;PMS6003;32314;48.748;9.656;2023-07-13T00:18:26;2.00;2.00;2.00
46591;PMS6003;32314;48.748;9.656;2023-07-13T00:21:15;3.75;2.00;2.00
46591;PMS6003;32314;48.748;9.656;2023-07-13T00:24:01;2.00;2.00;2.00
46591;PMS6003;32314;48.748;9.656;2023-07-13T00:26:47;3.00;3.00;2.00
46591;PMS6003;32314;48.748;9.656;2023-07-13T00:29:33;4.25;3.00;3.00
46591;PMS6003;32314;48.748;9.656;2023-07-13T00:32:19;5.25;4.50;3.50
46591;PMS6003;32314;48.748;9.656;2023-07-13T00:35:05;3.75;3.75;3.75
46591;PMS6003;32314;48.748;9.656;2023-07-13T00:37:51;3.00;3.00;2.75
46591;PMS6003;32314;48.748;9.656;2023-07-13T00:40:37;3.25;3.25;3.00
46591;PMS6003;32314;48.748;9.656;2023-07-13T00:43:23;2.75;2.75;2.00
46591;PMS6003;32314;48.748;9.656;2023-07-13T00:46:21;3.25;3.25;3.00
46591;PMS6003;32314;48.748;9.656;2023-07-13T00:49:10;2.00;2.00;1.75
46591;PMS6003;32314;48.748;9.656;2023-07-13T00:52:05;3.50;3.50;3.00
46591;PMS6003;32314;48.748;9.656;2023-07-13T00:54:52;5.00;3.25;3.00
46591;PMS6003;32314;48.748;9.656;2023-07-13T00:57:40;2.00;2.00;2.00
46591;PMS6003;32314;48.748;9.656;2023-07-13T01:00:26;3.50;3.50;3.00
46591;PMS6003;32314;48.748;9.656;2023-07-13T01:03:14;3.50;3.50;3.50
46591;PMS6003;32314;48.748;9.656;2023-07-13T01:06:00;3.50;2.00;2.00
46591;PMS6003;32314;48.748;9.656;2023-07-13T01:08:46;2.75;2.75;2.50
46591;PMS6003;32314;48.748;9.656;2023-07-13T01:11:32;4.00;2.25;2.00
46591;PMS6003;32314;48.748;9.656;2023-07-13T01:14:18;2.00;2.00;1.50
46591;PMS6003;32314;48.748;9.656;2023-07-13T01:17:04;3.00;1.00;1.00
46591;PMS6003;32314;48.748;9.656;2023-07-13T01:19:50;2.00;2.00;2.00
46591;PMS6003;32314;48.748;9.656;2023-07-13T01:22:36;2.00;2.00;1.75
46591;PMS6003;32314;48.748;9.656;2023-07-13T01:25:27;0.00;0.00;0.00
46591;PMS6003;32314;48.748;9.656;2023-07-13T01:28:15;1.00;1.00;1.00
46591;PMS6003;32314;48.748;9.656;2023-07-13T01:31:02;0.50;0.00;0.00
46591;PMS6003;32314;48.748;9.656;2023-07-13T01:33:48;2.00;2.00;2.00
46591;PMS6003;32314;48.748;9.656;2023-07-13T01:36:34;2.00;2.00;2.00
46591;PMS6003;32314;48.748;9.656;2023-07-13T01:39:21;2.00;2.00;1.75
46591;PMS6003;32314;48.748;9.656;2023-07-13T01:42:07;1.75;1.75;1.00
46591;PMS6003;32314;48.748;9.656;2023-07-13T01:44:53;1.00;1.00;1.00
46591;PMS6003;32314;48.748;9.656;2023-07-13T01:47:39;2.00;2.00;1.00
46591;PMS6003;32314;48.748;9.656;2023-07-13T01:50:25;1.00;1.00;1.00
46591;PMS6003;32314;48.748;9.656;2023-07-13T01:53:12;2.50;2.50;2.25
46591;PMS6003;32314;48.748;9.656;2023-07-13T01:55:58;2.25;2.25;2.25
46591;PMS6003;32314;48.748;9.656;2023-07-13T01:58:45;2.00;2.00;1.75
46591;PMS6003;32314;48.748;9.656;2023-07-13T02:01:31;1.75;1.00;1.00
46591;PMS6003;32314;48.748;9.656;2023-07-13T02:04:16;4.00;2.00;2.00
46591;PMS6003;32314;48.748;9.656;2023-07-13T02:07:02;2.00;2.00;2.00
46591;PMS6003;32314;48.748;9.656;2023-07-13T02:09:48;1.75;1.75;1.00
46591;PMS6003;32314;48.748;9.656;2023-07-13T02:12:34;1.00;1.00;1.00
46591;PMS6003;32314;48.748;9.656;2023-07-13T02:15:21;3.00;2.00;2.00
46591;PMS6003;32314;48.748;9.656;2023-07-13T02:18:06;2.50;2.50;2.50
46591;PMS6003;32314;48.748;9.656;2023-07-13T02:20:53;2.50;2.50;2.25
46591;PMS6003;32314;48.748;9.656;2023-07-13T02:23:38;1.25;1.25;1.00
46591;PMS6003;32314;48.748;9.656;2023-07-13T02:26:24;2.00;2.00;2.00
46591;PMS6003;32314;48.748;9.656;2023-07-13T02:29:10;5.00;3.50;3.00
46591;PMS6003;32314;48.748;9.656;2023-07-13T02:31:56;3.50;2.00;2.00
46591;PMS6003;32314;48.748;9.656;2023-07-13T02:34:43;1.00;1.00;1.00
46591;PMS6003;32314;48.748;9.656;2023-07-13T02:37:29;3.00;2.00;2.00
46591;PMS6003;32314;48.748;9.656;2023-07-13T02:40:15;4.00;2.25;2.00
46591;PMS6003;32314;48.748;9.656;2023-07-13T02:43:01;4.25;3.00;2.25
46591;PMS6003;32314;48.748;9.656;2023-07-13T02:45:50;2.00;2.00;2.00
46591;PMS6003;32314;48.748;9.656;2023-07-13T02:48:37;3.00;3.00;3.00
46591;PMS6003;32314;48.748;9.656;2023-07-13T02:51:24;2.75;2.75;2.00
46591;PMS6003;32314;48.748;9.656;2023-07-13T02:54:10;2.25;2.25;2.00
46591;PMS6003;32314;48.748;9.656;2023-07-13T02:56:57;4.50;2.00;1.75
46591;PMS6003;32314;48.748;9.656;2023-07-13T02:59:43;2.00;2.00;2.00
46591;PMS6003;32314;48.748;9.656;2023-07-13T03:02:29;2.00;2.00;2.00
46591;PMS6003;32314;48.748;9.656;2023-07-13T03:05:16;3.00;3.00;2.00
46591;PMS6003;32314;48.748;9.656;2023-07-13T03:08:03;2.00;2.00;2.00
46591;PMS6003;32314;48.748;9.656;2023-07-13T03:10:58;2.00;2.00;2.00
46591;PMS6003;32314;48.748;9.656;2023-07-13T03:13:50;3.75;3.00;2.25
46591;PMS6003;32314;48.748;9.656;2023-07-13T03:16:36;5.00;2.25;2.00
46591;PMS6003;32314;48.748;9.656;2023-07-13T03:19:22;4.00;4.00;4.00
46591;PMS6003;32314;48.748;9.656;2023-07-13T03:22:10;4.25;3.00;2.50
46591;PMS6003;32314;48.748;9.656;2023-07-13T03:24:57;3.00;3.00;3.00
46591;PMS6003;32314;48.748;9.656;2023-07-13T03:27:43;4.75;4.00;3.75
46591;PMS6003;32314;48.748;9.656;2023-07-13T03:30:29;4.75;3.75;3.00
46591;PMS6003;32314;48.748;9.656;2023-07-13T03:33:15;3.00;3.00;3.00
46591;PMS6003;32314;48.748;9.656;2023-07-13T03:36:01;0.75;0.75;0.75
46591;PMS6003;32314;48.748;9.656;2023-07-13T03:38:49;0.00;0.00;0.00
46591;PMS6003;32314;48.748;9.656;2023-07-13T03:41:42;1.00;1.00;0.50
46591;PMS6003;32314;48.748;9.656;2023-07-13T03:44:28;3.00;0.00;0.00
46591;PMS6003;32314;48.748;9.656;2023-07-13T03:47:16;1.00;1.00;1.00
46591;PMS6003;32314;48.748;9.656;2023-07-13T03:50:04;2.00;2.00;2.00
46591;PMS6003;32314;48.748;9.656;2023-07-13T03:52:50;4.00;4.00;3.00
46591;PMS6003;32314;48.748;9.656;2023-07-13T03:55:36;4.50;3.00;2.50
46591;PMS6003;32314;48.748;9.656;2023-07-13T03:58:23;5.00;3.50;3.00
46591;PMS6003;32314;48.748;9.656;2023-07-13T04:01:13;5.00;4.25;3.75
46591;PMS6003;32314;48.748;9.656;2023-07-13T04:04:00;5.00;5.00;4.00
46591;PMS6003;32314;48.748;9.656;2023-07-13T04:06:46;5.50;4.50;4.00
46591;PMS6003;32314;48.748;9.656;2023-07-13T04:09:31;2.00;2.00;2.00
46591;PMS6003;32314;48.748;9.656;2023-07-13T04:12:17;5.00;3.75;3.00
46591;PMS6003;32314;48.748;9.656;2023-07-13T04:15:04;3.50;3.00;2.75
46591;PMS6003;32314;48.748;9.656;2023-07-13T04:17:50;2.75;2.75;2.50
46591;PMS6003;32314;48.748;9.656;2023-07-13T04:20:36;3.00;3.00;3.00
46591;PMS6003;32314;48.748;9.656;2023-07-13T04:23:22;3.75;3.75;3.75
46591;PMS6003;32314;48.748;9.656;2023-07-13T04:26:08;2.50;2.50;2.50
46591;PMS6003;32314;48.748;9.656;2023-07-13T04:28:54;4.75;3.00;3.00
46591;PMS6003;32314;48.748;9.656;2023-07-13T04:31:40;2.00;2.00;2.00
46591;PMS6003;32314;48.748;9.656;2023-07-13T04:34:26;4.00;4.00;3.00
46591;PMS6003;32314;48.748;9.656;2023-07-13T04:37:12;0.75;0.75;0.75
46591;PMS6003;32314;48.748;9.656;2023-07-13T04:39:57;2.50;2.50;2.25
46591;PMS6003;32314;48.748;9.656;2023-07-13T04:42:44;3.00;3.00;3.00
46591;PMS6003;32314;48.748;9.656;2023-07-13T04:45:30;3.00;2.25;2.00
46591;PMS6003;32314;48.748;9.656;2023-07-13T04:48:16;3.75;3.75;2.75
46591;PMS6003;32314;48.748;9.656;2023-07-13T04:51:02;4.75;4.75;4.25
46591;PMS6003;32314;48.748;9.656;2023-07-13T04:53:48;4.25;4.25;4.00
46591;PMS6003;32314;48.748;9.656;2023-07-13T04:56:34;5.75;4.25;3.00
46591;PMS6003;32314;48.748;9.656;2023-07-13T04:59:20;3.50;3.50;3.25
46591;PMS6003;32314;48.748;9.656;2023-07-13T05:02:06;3.50;3.50;3.00
46591;PMS6003;32314;48.748;9.656;2023-07-13T05:04:52;6.00;5.00;4.00
46591;PMS6003;32314;48.748;9.656;2023-07-13T05:07:38;4.00;4.00;3.50
46591;PMS6003;32314;48.748;9.656;2023-07-13T05:10:23;4.00;4.00;3.75
46591;PMS6003;32314;48.748;9.656;2023-07-13T05:13:09;3.00;3.00;3.00
46591;PMS6003;32314;48.748;9.656;2023-07-13T05:15:56;3.25;3.25;3.00
46591;PMS6003;32314;48.748;9.656;2023-07-13T05:18:49;7.00;5.75;5.00
46591;PMS6003;32314;48.748;9.656;2023-07-13T05:21:34;6.00;4.00;3.00
46591;PMS6003;32314;48.748;9.656;2023-07-13T05:24:20;3.00;3.00;3.00
46591;PMS6003;32314;48.748;9.656;2023-07-13T05:27:13;3.00;3.00;2.75
46591;PMS6003;32314;48.748;9.656;2023-07-13T05:30:04;6.25;4.25;4.00
46591;PMS6003;32314;48.748;9.656;2023-07-13T05:33:03;5.50;5.50;5.00
46591;PMS6003;32314;48.748;9.656;2023-07-13T05:35:52;6.75;3.75;3.00
46591;PMS6003;32314;48.748;9.656;2023-07-13T05:38:44;3.75;3.75;2.75
46591;PMS6003;32314;48.748;9.656;2023-07-13T05:41:38;4.00;4.00;3.00
46591;PMS6003;32314;48.748;9.656;2023-07-13T05:44:39;3.50;3.50;3.00
46591;PMS6003;32314;48.748;9.656;2023-07-13T05:47:30;3.00;3.00;3.00
46591;PMS6003;32314;48.748;9.656;2023-07-13T05:50:19;3.00;3.00;2.50
46591;PMS6003;32314;48.748;9.656;2023-07-13T05:53:16;3.00;3.00;3.00
46591;PMS6003;32314;48.748;9.656;2023-07-13T05:56:02;3.00;3.00;3.00
46591;PMS6003;32314;48.748;9.656;2023-07-13T05:58:48;3.00;3.00;2.75
46591;PMS6003;32314;48.748;9.656;2023-07-13T06:01:34;4.75;4.75;3.75
46591;PMS6003;32314;48.748;9.656;2023-07-13T06:04:20;3.25;3.25;3.00
46591;PMS6003;32314;48.748;9.656;2023-07-13T06:07:06;3.00;3.00;3.00
46591;PMS6003;32314;48.748;9.656;2023-07-13T06:09:52;2.00;2.00;2.00
46591;PMS6003;32314;48.748;9.656;2023-07-13T06:12:38;4.00;4.00;3.50
46591;PMS6003;32314;48.748;9.656;2023-07-13T06:15:24;4.00;2.25;2.00
46591;PMS6003;32314;48.748;9.656;2023-07-13T06:18:09;2.75;2.75;2.50
46591;PMS6003;32314;48.748;9.656;2023-07-13T06:20:55;3.25;3.25;3.00
46591;PMS6003;32314;48.748;9.656;2023-07-13T06:23:45;2.00;2.00;2.00
46591;PMS6003;32314;48.748;9.656;2023-07-13T06:26:33;4.00;3.00;3.00
46591;PMS6003;32314;48.748;9.656;2023-07-13T06:29:18;2.75;2.75;2.75
46591;PMS6003;32314;48.748;9.656;2023-07-13T06:32:04;2.50;2.00;2.00
46591;PMS6003;32314;48.748;9.656;2023-07-13T06:34:51;2.00;2.00;2.00
46591;PMS6003;32314;48.748;9.656;2023-07-13T06:37:37;2.50;2.50;2.50
46591;PMS6003;32314;48.748;9.656;2023-07-13T06:40:23;2.00;2.00;2.00
46591;PMS6003;32314;48.748;9.656;2023-07-13T06:43:08;2.50;2.50;2.25
46591;PMS6003;32314;48.748;9.656;2023-07-13T06:45:55;2.00;2.00;2.00
46591;PMS6003;32314;48.748;9.656;2023-07-13T06:48:41;2.50;2.50;2.00
46591;PMS6003;32314;48.748;9.656;2023-07-13T06:51:27;2.50;2.50;2.00
46591;PMS6003;32314;48.748;9.656;2023-07-13T06:54:13;3.00;3.00;2.75
46591;PMS6003;32314;48.748;9.656;2023-07-13T06:56:59;4.75;3.50;3.00
46591;PMS6003;32314;48.748;9.656;2023-07-13T06:59:45;2.25;2.25;2.25
46591;PMS6003;32314;48.748;9.656;2023-07-13T07:02:31;3.00;3.00;2.75
46591;PMS6003;32314;48.748;9.656;2023-07-13T07:05:17;2.00;2.00;2.00
46591;PMS6003;32314;48.748;9.656;2023-07-13T07:08:03;2.75;2.75;2.00
46591;PMS6003;32314;48.748;9.656;2023-07-13T07:10:52;1.75;1.75;1.75
46591;PMS6003;32314;48.748;9.656;2023-07-13T07:13:39;4.00;2.50;2.00
46591;PMS6003;32314;48.748;9.656;2023-07-13T07:16:26;3.00;3.00;2.00
46591;PMS6003;32314;48.748;9.656;2023-07-13T07:19:12;2.00;2.00;2.00
46591;PMS6003;32314;48.748;9.656;2023-07-13T07:21:58;3.50;2.75;2.75
46591;PMS6003;32314;48.748;9.656;2023-07-13T07:24:43;5.25;2.75;2.50
46591;PMS6003;32314;48.748;9.656;2023-07-13T07:27:29;2.25;2.25;2.00
46591;PMS6003;32314;48.748;9.656;2023-07-13T07:30:15;2.00;2.00;2.00
46591;PMS6003;32314;48.748;9.656;2023-07-13T07:33:01;2.25;2.25;2.00
46591;PMS6003;32314;48.748;9.656;2023-07-13T07:35:47;2.25;2.25;2.00
46591;PMS6003;32314;48.748;9.656;2023-07-13T07:38:33;2.00;2.00;1.75
46591;PMS6003;32314;48.748;9.656;2023-07-13T07:41:19;2.75;2.50;2.25
46591;PMS6003;32314;48.748;9.656;2023-07-13T07:44:06;1.00;1.00;1.00
46591;PMS6003;32314;48.748;9.656;2023-07-13T07:46:52;2.00;2.00;2.00
46591;PMS6003;32314;48.748;9.656;2023-07-13T07:49:39;1.25;1.25;0.75
46591;PMS6003;32314;48.748;9.656;2023-07-13T07:52:25;1.00;1.00;1.00
46591;PMS6003;32314;48.748;9.656;2023-07-13T07:55:10;1.50;1.50;1.00
46591;PMS6003;32314;48.748;9.656;2023-07-13T07:57:56;1.00;1.00;1.00
46591;PMS6003;32314;48.748;9.656;2023-07-13T08:00:42;1.33;0.33;0.33
46591;PMS6003;32314;48.748;9.656;2023-07-13T08:03:28;1.00;1.00;1.00
46591;PMS6003;32314;48.748;9.656;2023-07-13T08:06:14;0.67;0.67;0.67
46591;PMS6003;32314;48.748;9.656;2023-07-13T08:09:01;3.00;1.00;1.00
46591;PMS6003;32314;48.748;9.656;2023-07-13T08:11:49;0.00;0.00;0.00
46591;PMS6003;32314;48.748;9.656;2023-07-13T08:14:36;0.33;0.33;0.33
46591;PMS6003;32314;48.748;9.656;2023-07-13T08:17:24;0.33;0.33;0.33
46591;PMS6003;32314;48.748;9.656;2023-07-13T08:20:10;1.00;1.00;1.00
46591;PMS6003;32314;48.748;9.656;2023-07-13T08:25:52;0.00;0.00;0.00
46591;PMS6003;32314;48.748;9.656;2023-07-13T08:28:38;0.33;0.33;0.33
46591;PMS6003;32314;48.748;9.656;2023-07-13T08:31:27;2.33;0.33;0.33
46591;PMS6003;32314;48.748;9.656;2023-07-13T08:34:14;2.33;1.00;0.33
46591;PMS6003;32314;48.748;9.656;2023-07-13T08:37:01;1.00;1.00;0.67
46591;PMS6003;32314;48.748;9.656;2023-07-13T08:39:48;0.33;0.33;0.33
46591;PMS6003;32314;48.748;9.656;2023-07-13T08:45:23;0.00;0.00;0.00
46591;PMS6003;32314;48.748;9.656;2023-07-13T08:48:19;1.33;0.33;0.33
46591;PMS6003;32314;48.748;9.656;2023-07-13T08:51:26;1.00;1.00;1.00
46591;PMS6003;32314;48.748;9.656;2023-07-13T08:54:37;0.00;0.00;0.00
46591;PMS6003;32314;48.748;9.656;2023-07-13T08:57:27;1.33;0.00;0.00
46591;PMS6003;32314;48.748;9.656;2023-07-13T09:00:17;0.00;0.00;0.00
46591;PMS6003;32314;48.748;9.656;2023-07-13T09:03:19;1.00;1.00;1.00
46591;PMS6003;32314;48.748;9.656;2023-07-13T09:06:22;0.00;0.00;0.00
46591;PMS6003;32314;48.748;9.656;2023-07-13T09:10:12;0.75;0.75;0.00
46591;PMS6003;32314;48.748;9.656;2023-07-13T09:13:39;0.00;0.00;0.00
46591;PMS6003;32314;48.748;9.656;2023-07-13T09:19:58;0.00;0.00;0.00
46591;PMS6003;32314;48.748;9.656;2023-07-13T09:23:07;1.00;0.00;0.00
46591;PMS6003;32314;48.748;9.656;2023-07-13T09:26:11;0.00;0.00;0.00
46591;PMS6003;32314;48.748;9.656;2023-07-13T09:29:11;0.00;0.00;0.00
46591;PMS6003;32314;48.748;9.656;2023-07-13T09:32:10;0.00;0.00;0.00
46591;PMS6003;32314;48.748;9.656;2023-07-13T09:35:12;1.00;0.00;0.00
46591;PMS6003;32314;48.748;9.656;2023-07-13T09:38:30;2.00;0.00;0.00
46591;PMS6003;32314;48.748;9.656;2023-07-13T09:45:00;0.00;0.00;0.00
46591;PMS6003;32314;48.748;9.656;2023-07-13T09:50:31;1.00;1.00;1.00
46591;PMS6003;32314;48.748;9.656;2023-07-13T10:45:15;0.75;0.75;0.75
46591;PMS6003;32314;48.748;9.656;2023-07-13T10:48:06;1.25;0.00;0.00
46591;PMS6003;32314;48.748;9.656;2023-07-13T10:50:56;0.00;0.00;0.00
46591;PMS6003;32314;48.748;9.656;2023-07-13T10:53:45;0.25;0.25;0.00
46591;PMS6003;32314;48.748;9.656;2023-07-13T10:57:14;1.00;1.00;1.00
46591;PMS6003;32314;48.748;9.656;2023-07-13T11:00:16;1.00;0.00;0.00
46591;PMS6003;32314;48.748;9.656;2023-07-13T11:03:03;0.50;0.50;0.50
46591;PMS6003;32314;48.748;9.656;2023-07-13T11:05:50;1.00;1.00;1.00
46591;PMS6003;32314;48.748;9.656;2023-07-13T11:14:31;1.25;0.00;0.00
46591;PMS6003;32314;48.748;9.656;2023-07-13T11:20:37;1.75;1.75;1.75
46591;PMS6003;32314;48.748;9.656;2023-07-13T11:23:28;0.75;0.75;0.75
46591;PMS6003;32314;48.748;9.656;2023-07-13T11:29:37;2.00;1.00;0.75
46591;PMS6003;32314;48.748;9.656;2023-07-13T11:32:25;0.00;0.00;0.00
46591;PMS6003;32314;48.748;9.656;2023-07-13T11:35:49;1.00;1.00;0.75
46591;PMS6003;32314;48.748;9.656;2023-07-13T11:38:43;1.00;1.00;1.00
46591;PMS6003;32314;48.748;9.656;2023-07-13T11:41:47;4.00;1.25;1.25
46591;PMS6003;32314;48.748;9.656;2023-07-13T11:44:43;0.50;0.50;0.50
46591;PMS6003;32314;48.748;9.656;2023-07-13T11:47:31;1.75;0.25;0.25
46591;PMS6003;32314;48.748;9.656;2023-07-13T11:50:23;1.00;1.00;1.00
46591;PMS6003;32314;48.748;9.656;2023-07-13T11:53:11;0.00;0.00;0.00
46591;PMS6003;32314;48.748;9.656;2023-07-13T11:56:01;0.50;0.50;0.00
46591;PMS6003;32314;48.748;9.656;2023-07-13T11:58:55;0.75;0.75;0.75
46591;PMS6003;32314;48.748;9.656;2023-07-13T12:01:44;1.00;1.00;1.00
46591;PMS6003;32314;48.748;9.656;2023-07-13T12:04:33;1.75;1.75;1.75
46591;PMS6003;32314;48.748;9.656;2023-07-13T12:07:24;1.00;1.00;1.00
46591;PMS6003;32314;48.748;9.656;2023-07-13T12:13:08;0.50;0.50;0.50
46591;PMS6003;32314;48.748;9.656;2023-07-13T12:15:55;2.00;2.00;2.00
46591;PMS6003;32314;48.748;9.656;2023-07-13T12:18:42;3.75;1.00;1.00
46591;PMS6003;32314;48.748;9.656;2023-07-13T12:21:34;1.00;1.00;1.00
46591;PMS6003;32314;48.748;9.656;2023-07-13T12:24:34;1.75;1.75;1.00
46591;PMS6003;32314;48.748;9.656;2023-07-13T12:27:25;1.50;0.75;0.50
46591;PMS6003;32314;48.748;9.656;2023-07-13T12:30:30;0.00;0.00;0.00
46591;PMS6003;32314;48.748;9.656;2023-07-13T12:33:24;0.00;0.00;0.00
46591;PMS6003;32314;48.748;9.656;2023-07-13T12:36:15;1.50;1.00;1.00
46591;PMS6003;32314;48.748;9.656;2023-07-13T12:39:15;0.75;0.75;0.50
46591;PMS6003;32314;48.748;9.656;2023-07-13T12:45:24;2.00;2.00;1.25
46591;PMS6003;32314;48.748;9.656;2023-07-13T12:48:15;2.00;2.00;1.33
46591;PMS6003;32314;48.748;9.656;2023-07-13T12:51:08;2.00;2.00;0.67
46591;PMS6003;32314;48.748;9.656;2023-07-13T12:54:33;1.00;1.00;1.00
46591;PMS6003;32314;48.748;9.656;2023-07-13T12:57:16;1.25;1.25;1.00
46591;PMS6003;32314;48.748;9.656;2023-07-13T13:00:33;1.00;1.00;1.00
46591;PMS6003;32314;48.748;9.656;2023-07-13T13:03:50;1.00;1.00;0.67
46591;PMS6003;32314;48.748;9.656;2023-07-13T13:20:21;1.75;1.75;1.00
46591;PMS6003;32314;48.748;9.656;2023-07-13T13:23:59;2.00;2.00;2.00
46591;PMS6003;32314;48.748;9.656;2023-07-13T13:26:56;2.75;1.75;1.00
46591;PMS6003;32314;48.748;9.656;2023-07-13T13:29:52;2.00;2.00;1.50
46591;PMS6003;32314;48.748;9.656;2023-07-13T13:36:08;1.00;1.00;0.75
46591;PMS6003;32314;48.748;9.656;2023-07-13T13:58:33;1.00;1.00;0.25
46591;PMS6003;32314;48.748;9.656;2023-07-13T14:02:23;1.50;1.50;1.50
46591;PMS6003;32314;48.748;9.656;2023-07-13T19:47:26;3.00;3.00;3.00
46591;PMS6003;32314;48.748;9.656;2023-07-13T19:50:13;2.00;2.00;2.00
46591;PMS6003;32314;48.748;9.656;2023-07-13T19:53:02;2.25;2.25;2.25
46591;PMS6003;32314;48.748;9.656;2023-07-13T19:55:50;3.00;3.00;2.25
46591;PMS6003;32314;48.748;9.656;2023-07-13T19:58:37;2.25;2.25;1.75
46591;PMS6003;32314;48.748;9.656;2023-07-13T20:01:23;4.75;3.50;3.00
46591;PMS6003;32314;48.748;9.656;2023-07-13T20:04:09;2.50;2.50;1.50
46591;PMS6003;32314;48.748;9.656;2023-07-13T20:06:55;4.25;2.25;1.50
46591;PMS6003;32314;48.748;9.656;2023-07-13T20:09:41;3.25;3.25;2.50
46591;PMS6003;32314;48.748;9.656;2023-07-13T20:12:35;1.25;1.25;1.25
46591;PMS6003;32314;48.748;9.656;2023-07-13T20:15:23;3.25;3.25;3.25
46591;PMS6003;32314;48.748;9.656;2023-07-13T20:18:11;3.00;3.00;2.75
46591;PMS6003;32314;48.748;9.656;2023-07-13T20:20:59;2.00;2.00;2.00
46591;PMS6003;32314;48.748;9.656;2023-07-13T20:23:45;3.00;3.00;3.00
46591;PMS6003;32314;48.748;9.656;2023-07-13T20:26:31;2.25;2.25;1.75
46591;PMS6003;32314;48.748;9.656;2023-07-13T20:29:17;4.00;3.00;3.00
46591;PMS6003;32314;48.748;9.656;2023-07-13T20:32:03;3.00;3.00;2.25
46591;PMS6003;32314;48.748;9.656;2023-07-13T20:34:50;3.00;3.00;3.00
46591;PMS6003;32314;48.748;9.656;2023-07-13T20:37:37;3.00;3.00;3.00
46591;PMS6003;32314;48.748;9.656;2023-07-13T20:40:25;2.00;2.00;2.00
46591;PMS6003;32314;48.748;9.656;2023-07-13T20:43:13;3.25;3.25;3.00
46591;PMS6003;32314;48.748;9.656;2023-07-13T20:46:00;5.00;3.00;3.00
46591;PMS6003;32314;48.748;9.656;2023-07-13T20:48:46;7.00;3.00;3.00
46591;PMS6003;32314;48.748;9.656;2023-07-13T20:51:35;4.00;4.00;3.50
46591;PMS6003;32314;48.748;9.656;2023-07-13T20:54:22;3.00;3.00;3.00
46591;PMS6003;32314;48.748;9.656;2023-07-13T20:57:07;3.00;3.00;3.00
46591;PMS6003;32314;48.748;9.656;2023-07-13T20:59:55;4.00;2.00;2.00
46591;PMS6003;32314;48.748;9.656;2023-07-13T21:02:41;5.00;3.50;3.00
46591;PMS6003;32314;48.748;9.656;2023-07-13T21:05:29;4.00;4.00;3.25
46591;PMS6003;32314;48.748;9.656;2023-07-13T21:08:19;3.00;3.00;3.00
46591;PMS6003;32314;48.748;9.656;2023-07-13T21:11:06;3.25;3.25;3.00
46591;PMS6003;32314;48.748;9.656;2023-07-13T21:13:55;2.00;2.00;2.00
46591;PMS6003;32314;48.748;9.656;2023-07-13T21:16:41;3.00;3.00;2.75
46591;PMS6003;32314;48.748;9.656;2023-07-13T21:19:26;4.00;4.00;4.00
46591;PMS6003;32314;48.748;9.656;2023-07-13T21:22:15;3.50;3.50;3.50
46591;PMS6003;32314;48.748;9.656;2023-07-13T21:25:11;3.00;3.00;3.00
46591;PMS6003;32314;48.748;9.656;2023-07-13T21:27:58;3.25;3.25;3.00
46591;PMS6003;32314;48.748;9.656;2023-07-13T21:30:45;3.75;3.75;3.00
46591;PMS6003;32314;48.748;9.656;2023-07-13T21:33:30;4.75;4.00;3.50
46591;PMS6003;32314;48.748;9.656;2023-07-13T21:36:17;3.75;3.75;3.75
46591;PMS6003;32314;48.748;9.656;2023-07-13T21:39:04;4.25;4.25;4.25
46591;PMS6003;32314;48.748;9.656;2023-07-13T21:41:51;5.00;3.25;3.00
46591;PMS6003;32314;48.748;9.656;2023-07-13T21:44:37;5.00;5.00;4.25
46591;PMS6003;32314;48.748;9.656;2023-07-13T21:47:23;4.00;4.00;3.75
46591;PMS6003;32314;48.748;9.656;2023-07-13T21:50:09;4.00;4.00;4.00
46591;PMS6003;32314;48.748;9.656;2023-07-13T21:52:55;4.00;4.00;4.00
46591;PMS6003;32314;48.748;9.656;2023-07-13T21:55:41;4.00;4.00;4.00
46591;PMS6003;32314;48.748;9.656;2023-07-13T21:58:28;4.00;4.00;3.00
46591;PMS6003;32314;48.748;9.656;2023-07-13T22:01:20;5.00;4.00;4.00
46591;PMS6003;32314;48.748;9.656;2023-07-13T22:04:09;2.50;2.50;1.00
46591;PMS6003;32314;48.748;9.656;2023-07-13T22:07:01;4.00;2.50;1.00
46591;PMS6003;32314;48.748;9.656;2023-07-13T22:09:53;0.75;0.75;0.75
46591;PMS6003;32314;48.748;9.656;2023-07-13T22:12:39;0.50;0.50;0.50
46591;PMS6003;32314;48.748;9.656;2023-07-13T22:15:28;0.25;0.25;0.25
46591;PMS6003;32314;48.748;9.656;2023-07-13T22:18:18;5.75;5.75;4.50
46591;PMS6003;32314;48.748;9.656;2023-07-13T22:21:07;5.75;4.00;3.75
46591;PMS6003;32314;48.748;9.656;2023-07-13T22:23:56;4.00;4.00;4.00
46591;PMS6003;32314;48.748;9.656;2023-07-13T22:26:43;4.00;4.00;4.00
46591;PMS6003;32314;48.748;9.656;2023-07-13T22:29:31;3.25;3.25;3.00
46591;PMS6003;32314;48.748;9.656;2023-07-13T22:32:18;4.75;4.75;4.00
46591;PMS6003;32314;48.748;9.656;2023-07-13T22:35:08;3.25;3.25;3.25
46591;PMS6003;32314;48.748;9.656;2023-07-13T22:38:01;0.00;0.00;0.00
46591;PMS6003;32314;48.748;9.656;2023-07-13T22:40:47;1.00;1.00;1.00
46591;PMS6003;32314;48.748;9.656;2023-07-13T22:43:33;3.00;0.00;0.00
46591;PMS6003;32314;48.748;9.656;2023-07-13T22:46:23;1.00;1.00;1.00
46591;PMS6003;32314;48.748;9.656;2023-07-13T22:49:18;0.00;0.00;0.00
46591;PMS6003;32314;48.748;9.656;2023-07-13T22:52:08;4.50;4.50;4.00
46591;PMS6003;32314;48.748;9.656;2023-07-13T22:54:55;3.50;3.50;3.00
46591;PMS6003;32314;48.748;9.656;2023-07-13T22:57:43;1.00;1.00;1.00
46591;PMS6003;32314;48.748;9.656;2023-07-13T23:00:33;1.00;1.00;1.00
46591;PMS6003;32314;48.748;9.656;2023-07-13T23:03:19;4.50;4.50;4.00
46591;PMS6003;32314;48.748;9.656;2023-07-13T23:06:05;1.00;1.00;1.00
46591;PMS6003;32314;48.748;9.656;2023-07-13T23:08:51;2.50;2.50;2.50
46591;PMS6003;32314;48.748;9.656;2023-07-13T23:11:37;1.00;1.00;0.25
46591;PMS6003;32314;48.748;9.656;2023-07-13T23:14:23;1.00;1.00;1.00
46591;PMS6003;32314;48.748;9.656;2023-07-13T23:17:11;0.25;0.25;0.00
46591;PMS6003;32314;48.748;9.656;2023-07-13T23:19:57;1.00;1.00;0.50
46591;PMS6003;32314;48.748;9.656;2023-07-13T23:22:46;1.00;1.00;1.00
46591;PMS6003;32314;48.748;9.656;2023-07-13T23:25:32;0.75;0.75;0.50
46591;PMS6003;32314;48.748;9.656;2023-07-13T23:28:18;1.00;1.00;1.00
46591;PMS6003;32314;48.748;9.656;2023-07-13T23:31:03;1.00;1.00;1.00
46591;PMS6003;32314;48.748;9.656;2023-07-13T23:33:50;0.75;0.75;0.75
46591;PMS6003;32314;48.748;9.656;2023-07-13T23:36:36;1.00;1.00;1.00
46591;PMS6003;32314;48.748;9.656;2023-07-13T23:39:24;2.00;2.00;1.00
46591;PMS6003;32314;48.748;9.656;2023-07-13T23:42:10;1.00;1.00;0.25
46591;PMS6003;32314;48.748;9.656;2023-07-13T23:44:55;2.00;0.75;0.75
46591;PMS6003;32314;48.748;9.656;2023-07-13T23:47:42;0.00;0.00;0.00
46591;PMS6003;32314;48.748;9.656;2023-07-13T23:50:32;1.00;1.00;1.00
46591;PMS6003;32314;48.748;9.656;2023-07-13T23:53:18;1.00;1.00;1.00
46591;PMS6003;32314;48.748;9.656;2023-07-13T23:56:11;3.75;3.75;3.50
46591;PMS6003;32314;48.748;9.656;2023-07-13T23:59:02;5.00;1.50;1.50
